Rickmers Seoul — V7EI5 — position and weather

sailwx.info

Track history (hours):
 
Tides and Currents Weather Stations Pressure Air Temp Water Temp Dewpoint Dewpoint Depression Visibility Wind Speed Wind Dir Waves Ship Positions

Rickmers Seoul

Last reported at 2016-May-05 08:33 UTC. Time now 2016-May-06 16:54 UTC.
Position N 47°26' W 005°27'.

Length 192.9 m; beam 27.8 m; draft 11.2 m.

Type: Ship. MMSI: 538001809.

Date/timePositionNaut miles runAvg speedWind from/ knotsBaromVisibWave heightAir tempDewpointWater temp
2016-May-05 08:33N 47°26' W 005°27'1414.5
2016-May-05 07:34N 47°41' W 005°32'1515.4
2016-May-05 06:34N 47°56' W 005°37'1615.8
2016-May-05 05:33N 48°11' W 005°43'1615.5
2016-May-05 04:33N 48°26' W 005°50'1514.8
2016-May-05 03:33N 48°40' W 005°55'1313.3
2016-May-05 02:34N 48°53' W 005°48'1312.6
2016-May-05 01:34N 48°60' W 005°32'1212.5
2016-May-05 00:33N 49°06' W 005°15'1110.9
2016-May-04 23:33N 49°11' W 005°01'1514.5
2016-May-04 22:33N 49°18' W 004°41'1615.5
2016-May-04 21:33N 49°26' W 004°21'1615.7
2016-May-04 20:33N 49°34' W 004°00'1515.0
2016-May-04 19:33N 49°42' W 003°40'1413.8
2016-May-04 18:34N 49°49' W 003°22'1212.2
2016-May-04 17:33N 49°55' W 003°05'1111.4
2016-May-04 16:34N 49°59' W 002°49'1211.8
2016-May-04 15:34N 50°02' W 002°31'1312.9
2016-May-04 14:34N 50°06' W 002°12'1714.7
2016-May-04 13:26N 50°11' W 001°47'1416.0
2016-May-04 12:33N 50°15' W 001°26'1616.4
2016-May-04 11:33N 50°19' W 001°01'1515.4
2016-May-04 10:33N 50°23' W 000°38'1414.2
2016-May-04 09:33N 50°27' W 000°17'1313.0
2016-May-04 08:33N 50°31' E 000°03'1111.4
2016-May-04 07:33N 50°34' E 000°20'1310.5
2016-May-04 06:21N 50°38' E 000°39'1011.4
2016-May-04 05:26N 50°45' E 000°52'1112.9
2016-May-04 04:33N 50°52' E 001°05'1414.0
2016-May-04 03:34N 51°02' E 001°21'1515.2
2016-May-04 02:34N 51°11' E 001°41'1413.8
2016-May-04 01:33N 51°23' E 001°52'1312.7
2016-May-04 00:33N 51°33' E 002°03'1712.3
2016-May-03 23:11N 51°45' E 002°22'912.3
2016-May-03 22:25N 51°52' E 002°33'2913.3
2016-May-03 20:15N 52°14' E 003°03'1014.8
2016-May-03 19:33N 52°23' E 003°13'6315.8
2016-May-03 15:33N 53°10' E 004°23'2813.6
2016-May-03 13:30N 53°32' E 004°51'1414.4
2016-May-03 12:33N 53°37' E 005°13'1615.7
2016-May-03 11:34N 53°42' E 005°38'1616.0
2016-May-03 10:33N 53°46' E 006°04'1615.8
2016-May-03 09:33N 53°51' E 006°29'1615.5
2016-May-03 08:34N 53°55' E 006°55'1515.0
2016-May-03 07:34N 53°58' E 007°20'1514.7
2016-May-03 06:34N 54°02' E 007°44'1414.2
2016-May-03 05:33N 54°01' E 008°08'1212.0
2016-May-03 04:33N 53°59' E 008°28'1313.2
2016-May-03 03:33N 53°51' E 008°46'1414.5
2016-May-03 02:34N 53°53' E 009°10'1414.2
2016-May-03 01:34N 53°43' E 009°28'1413.5
2016-May-03 00:33N 53°34' E 009°44'8 8.3
2016-May-02 23:33N 53°30' E 009°57'1 1.4
2016-May-02 22:32N 53°29' E 009°59'0 0.0
2016-May-02 21:32N 53°29' E 009°59'0 0.0
2016-May-02 20:29N 53°29' E 009°59'0 0.0
2016-May-02 19:32N 53°29' E 009°59'0 0.0
2016-May-02 18:32N 53°29' E 009°59'0 0.0
2016-May-02 17:32N 53°29' E 009°59'0 0.0
2016-May-02 16:32N 53°29' E 009°59'0 0.0
2016-May-02 15:32N 53°29' E 009°59'0 0.0
2016-May-02 14:32N 53°29' E 009°59'0 0.0
2016-May-02 13:32N 53°29' E 009°59'0 0.0
2016-May-02 12:32N 53°29' E 009°59'0 0.0
2016-May-02 11:32N 53°29' E 009°59'0 0.0
2016-May-02 10:32N 53°29' E 009°59'0 0.0
2016-May-02 09:32N 53°29' E 009°59'0 0.0
2016-May-02 08:32N 53°29' E 009°59'0 0.0
2016-May-02 07:32N 53°29' E 009°59'0 0.0
2016-May-02 06:32N 53°29' E 009°59'0 0.0
2016-May-02 05:32N 53°29' E 009°59'0 0.0
2016-May-02 04:32N 53°29' E 009°59'0 0.0
2016-May-02 03:32N 53°29' E 009°59'0 0.0
2016-May-02 02:32N 53°29' E 009°59'0 0.0
2016-May-02 01:32N 53°29' E 009°59'0 0.0
2016-May-02 00:32N 53°29' E 009°59'0 0.0
2016-May-01 23:32N 53°29' E 009°59'0 0.0
2016-May-01 22:32N 53°29' E 009°59'0 0.0
2016-May-01 21:32N 53°29' E 009°59'0 0.0
2016-May-01 20:32N 53°29' E 009°59'0 0.0
2016-May-01 19:32N 53°29' E 009°59'0 0.0
2016-May-01 18:29N 53°29' E 009°59'0 0.0
2016-May-01 17:29N 53°29' E 009°59'0 0.0
2016-May-01 16:32N 53°29' E 009°59'0 0.0
2016-May-01 15:32N 53°29' E 009°59'0 0.0
2016-May-01 14:32N 53°29' E 009°59'0 0.0
2016-May-01 13:32N 53°29' E 009°59'0 0.0
2016-May-01 12:32N 53°29' E 009°59'0 0.0
2016-May-01 11:32N 53°29' E 009°59'0 0.0
2016-May-01 10:32N 53°29' E 009°59'0 0.0
2016-May-01 09:32N 53°29' E 009°59'0 0.0
2016-May-01 08:32N 53°29' E 009°59'0 0.0
2016-May-01 07:29N 53°29' E 009°59'0 0.4
2016-May-01 06:33N 53°30' E 009°59'4 3.6
2016-May-01 05:33N 53°32' E 009°55'1010.1
2016-May-01 04:33N 53°34' E 009°38'1110.9
2016-May-01 03:33N 53°43' E 009°28'1111.2
2016-May-01 02:33N 53°52' E 009°16'9 9.3
2016-May-01 01:34N 53°51' E 009°00'10 9.6
2016-May-01 00:33N 53°52' E 008°44'9 9.0
2016-Apr-30 23:33N 53°58' E 008°33'10 9.9
2016-Apr-30 22:33N 53°60' E 008°16'1211.7
2016-Apr-30 21:33N 53°58' E 007°57'0 0.4
2016-Apr-30 20:33N 53°59' E 007°57'8 7.8
2016-Apr-30 19:33N 53°56' E 007°44'1111.3
2016-Apr-30 18:33N 53°54' E 007°26'1111.3
2016-Apr-30 17:33N 53°51' E 007°07'1211.7
2016-Apr-30 16:33N 53°49' E 006°47'1211.9
2016-Apr-30 15:33N 53°46' E 006°28'1212.3
2016-Apr-30 14:33N 53°42' E 006°08'1312.6
2016-Apr-30 13:33N 53°38' E 005°48'1312.7
2016-Apr-30 12:33N 53°34' E 005°28'1313.0
2016-Apr-30 11:33N 53°30' E 005°07'2711.9
2016-Apr-30 09:18N 53°12' E 004°33'1413.0
2016-Apr-30 08:12N 52°60' E 004°21'913.2
2016-Apr-30 07:33N 52°52' E 004°15'7312.1
2016-Apr-30 01:32N 51°49' E 003°17'1110.9
2016-Apr-30 00:33N 51°39' E 003°11'1413.6
2016-Apr-29 23:33N 51°27' E 002°60'1313.2
2016-Apr-29 22:33N 51°24' E 003°20'1212.4
2016-Apr-29 21:34N 51°26' E 003°40'1111.1
2016-Apr-29 20:33N 51°25' E 003°58'1010.0
2016-Apr-29 19:33N 51°22' E 004°13'7 6.9
2016-Apr-29 18:33N 51°17' E 004°20'0 0.3
2016-Apr-29 17:31N 51°16' E 004°20'2 1.7
2016-Apr-29 16:31N 51°17' E 004°23'0 0.0
2016-Apr-29 15:31N 51°17' E 004°23'0 0.0
2016-Apr-29 14:31N 51°17' E 004°23'0 0.0
2016-Apr-29 13:31N 51°17' E 004°23'0 0.0
2016-Apr-29 12:31N 51°17' E 004°23'0 0.0
2016-Apr-29 11:31N 51°17' E 004°23'0 0.0
2016-Apr-29 10:31N 51°17' E 004°23'0 0.0
2016-Apr-29 09:28N 51°17' E 004°23'0 0.0
2016-Apr-29 08:31N 51°17' E 004°23'0 0.0
2016-Apr-29 07:31N 51°17' E 004°23'0 0.0
2016-Apr-29 06:31N 51°17' E 004°23'0 0.0
2016-Apr-29 05:31N 51°17' E 004°23'0 0.0
2016-Apr-29 04:31N 51°17' E 004°23'0 0.0
2016-Apr-29 03:31N 51°17' E 004°23'0 0.0
2016-Apr-29 02:31N 51°17' E 004°23'0 0.0
2016-Apr-29 01:31N 51°17' E 004°23'0 0.0
2016-Apr-29 00:31N 51°17' E 004°23'0 0.0
2016-Apr-28 23:31N 51°17' E 004°23'0 0.0
2016-Apr-28 22:31N 51°17' E 004°23'1 0.8
2016-Apr-28 21:33N 51°17' E 004°22'1 0.7
2016-Apr-28 20:33N 51°17' E 004°23'0 0.0
2016-Apr-28 19:33N 51°17' E 004°23'0 0.0
2016-Apr-28 18:33N 51°17' E 004°23'0 0.0
2016-Apr-28 17:33N 51°17' E 004°23'0 0.0
2016-Apr-28 16:33N 51°17' E 004°23'0 0.0
2016-Apr-28 15:33N 51°17' E 004°23'0 0.0
2016-Apr-28 14:33N 51°17' E 004°23'0 0.0
2016-Apr-28 13:33N 51°17' E 004°23'0 0.0
2016-Apr-28 12:33N 51°17' E 004°23'0 0.0
2016-Apr-28 11:33N 51°17' E 004°23'0 0.0
2016-Apr-28 10:33N 51°17' E 004°23'0 0.0
2016-Apr-28 09:33N 51°17' E 004°23'0 0.0
2016-Apr-28 08:33N 51°17' E 004°23'0 0.0
2016-Apr-28 07:33N 51°17' E 004°23'0 0.0
2016-Apr-28 06:33N 51°17' E 004°23'0 0.0
2016-Apr-28 05:33N 51°17' E 004°23'0 0.0
2016-Apr-28 04:33N 51°17' E 004°23'0 0.0
2016-Apr-28 03:33N 51°17' E 004°23'0 0.0
2016-Apr-28 02:33N 51°17' E 004°23'0 0.0
2016-Apr-28 01:33N 51°17' E 004°23'0 0.0
2016-Apr-28 00:33N 51°17' E 004°23'0 0.0
2016-Apr-27 23:33N 51°17' E 004°23'0 0.0
2016-Apr-27 22:33N 51°17' E 004°23'0 0.0
2016-Apr-27 21:33N 51°17' E 004°23'0 0.0
2016-Apr-27 20:33N 51°17' E 004°23'0 0.0
2016-Apr-27 19:33N 51°17' E 004°23'0 0.0
2016-Apr-27 18:33N 51°17' E 004°23'0 0.0
2016-Apr-27 17:33N 51°17' E 004°23'0 0.0
2016-Apr-27 16:33N 51°17' E 004°23'0 0.0
2016-Apr-27 15:33N 51°17' E 004°23'0 0.0
2016-Apr-27 14:33N 51°17' E 004°23'0 0.0
2016-Apr-27 13:33N 51°17' E 004°23'0 0.0
2016-Apr-27 12:33N 51°17' E 004°23'0 0.0
2016-Apr-27 11:33N 51°17' E 004°23'0 0.0
2016-Apr-27 10:33N 51°17' E 004°23'0 0.0
2016-Apr-27 09:33N 51°17' E 004°23'0 0.0
2016-Apr-27 08:33N 51°17' E 004°23'0 0.0
2016-Apr-27 07:33N 51°17' E 004°23'0 0.0
2016-Apr-27 06:33N 51°17' E 004°23'0 0.0
2016-Apr-27 05:33N 51°17' E 004°23'0 0.0
2016-Apr-27 04:33N 51°17' E 004°23'0 0.0
2016-Apr-27 03:33N 51°17' E 004°23'0 0.0
2016-Apr-27 02:33N 51°17' E 004°23'0 0.0
2016-Apr-27 01:33N 51°17' E 004°23'0 0.0
2016-Apr-27 00:33N 51°17' E 004°23'0 0.0
2016-Apr-26 23:33N 51°17' E 004°23'0 0.0
2016-Apr-26 22:33N 51°17' E 004°23'0 0.0
2016-Apr-26 21:33N 51°17' E 004°23'0 0.0
2016-Apr-26 20:33N 51°17' E 004°23'0 0.0
2016-Apr-26 19:33N 51°17' E 004°23'0 0.0
2016-Apr-26 18:33N 51°17' E 004°23'0 0.0
2016-Apr-26 17:33N 51°17' E 004°23'0 0.0
2016-Apr-26 16:33N 51°17' E 004°23'0 0.0
2016-Apr-26 15:33N 51°17' E 004°23'0 0.0
2016-Apr-26 14:33N 51°17' E 004°23'0 0.0
2016-Apr-26 13:33N 51°17' E 004°23'0 0.0
2016-Apr-26 12:30N 51°17' E 004°23'0 0.0
2016-Apr-26 11:33N 51°17' E 004°23'0 0.0
2016-Apr-26 10:33N 51°17' E 004°23'0 0.1
2016-Apr-26 09:33N 51°17' E 004°23'0 0.1
2016-Apr-26 08:33N 51°17' E 004°23'0 0.0
2016-Apr-26 07:33N 51°17' E 004°23'0 0.0
2016-Apr-26 06:33N 51°17' E 004°23'0 0.0
2016-Apr-26 05:33N 51°17' E 004°23'0 0.0
2016-Apr-26 04:30N 51°17' E 004°23'0 0.0
2016-Apr-26 03:33N 51°17' E 004°23'0 0.0
2016-Apr-26 02:33N 51°17' E 004°23'0 0.0
2016-Apr-26 01:33N 51°17' E 004°23'0 0.0
2016-Apr-26 00:33N 51°17' E 004°23'0 0.0
2016-Apr-25 23:33N 51°17' E 004°23'0 0.0
2016-Apr-25 22:33N 51°17' E 004°23'0 0.0
2016-Apr-25 21:33N 51°17' E 004°23'0 0.0
2016-Apr-25 20:33N 51°17' E 004°23'0 0.0
2016-Apr-25 19:33N 51°17' E 004°23'0 0.0
2016-Apr-25 18:33N 51°17' E 004°23'0 0.0
2016-Apr-25 17:33N 51°17' E 004°23'0 0.0
2016-Apr-25 16:33N 51°17' E 004°23'0 0.0
2016-Apr-25 15:33N 51°17' E 004°23'0 0.0
2016-Apr-25 14:33N 51°17' E 004°23'0 0.0
2016-Apr-25 13:33N 51°17' E 004°23'0 0.0
2016-Apr-25 12:33N 51°17' E 004°23'0 0.0
2016-Apr-25 11:33N 51°17' E 004°23'0 0.0
2016-Apr-25 10:30N 51°17' E 004°23'0 0.0
2016-Apr-25 09:33N 51°17' E 004°23'  
Track history (hours):
 
Tides and Currents Weather Stations Pressure Air Temp Water Temp Dewpoint Dewpoint Depression Visibility Wind Speed Wind Dir Waves Ship Positions

Rickmers Seoul

Last reported at 2016-May-05 08:33 UTC. Time now 2016-May-06 16:54 UTC.
Position N 47°26' W 005°27'.

Length 192.9 m; beam 27.8 m; draft 11.2 m.

Type: Ship. MMSI: 538001809.

Date/timePositionNaut miles runAvg speedWind from/ knotsBaromVisibWave heightAir tempDewpointWater temp
2016-May-05 08:33N 47°26' W 005°27'1414.5
2016-May-05 07:34N 47°41' W 005°32'1515.4
2016-May-05 06:34N 47°56' W 005°37'1615.8
2016-May-05 05:33N 48°11' W 005°43'1615.5
2016-May-05 04:33N 48°26' W 005°50'1514.8
2016-May-05 03:33N 48°40' W 005°55'1313.3
2016-May-05 02:34N 48°53' W 005°48'1312.6
2016-May-05 01:34N 48°60' W 005°32'1212.5
2016-May-05 00:33N 49°06' W 005°15'1110.9
2016-May-04 23:33N 49°11' W 005°01'1514.5
2016-May-04 22:33N 49°18' W 004°41'1615.5
2016-May-04 21:33N 49°26' W 004°21'1615.7
2016-May-04 20:33N 49°34' W 004°00'1515.0
2016-May-04 19:33N 49°42' W 003°40'1413.8
2016-May-04 18:34N 49°49' W 003°22'1212.2
2016-May-04 17:33N 49°55' W 003°05'1111.4
2016-May-04 16:34N 49°59' W 002°49'1211.8
2016-May-04 15:34N 50°02' W 002°31'1312.9
2016-May-04 14:34N 50°06' W 002°12'1714.7
2016-May-04 13:26N 50°11' W 001°47'1416.0
2016-May-04 12:33N 50°15' W 001°26'1616.4
2016-May-04 11:33N 50°19' W 001°01'1515.4
2016-May-04 10:33N 50°23' W 000°38'1414.2
2016-May-04 09:33N 50°27' W 000°17'1313.0
2016-May-04 08:33N 50°31' E 000°03'1111.4
2016-May-04 07:33N 50°34' E 000°20'1310.5
2016-May-04 06:21N 50°38' E 000°39'1011.4
2016-May-04 05:26N 50°45' E 000°52'1112.9
2016-May-04 04:33N 50°52' E 001°05'1414.0
2016-May-04 03:34N 51°02' E 001°21'1515.2
2016-May-04 02:34N 51°11' E 001°41'1413.8
2016-May-04 01:33N 51°23' E 001°52'1312.7
2016-May-04 00:33N 51°33' E 002°03'1712.3
2016-May-03 23:11N 51°45' E 002°22'912.3
2016-May-03 22:25N 51°52' E 002°33'2913.3
2016-May-03 20:15N 52°14' E 003°03'1014.8
2016-May-03 19:33N 52°23' E 003°13'6315.8
2016-May-03 15:33N 53°10' E 004°23'2813.6
2016-May-03 13:30N 53°32' E 004°51'1414.4
2016-May-03 12:33N 53°37' E 005°13'1615.7
2016-May-03 11:34N 53°42' E 005°38'1616.0
2016-May-03 10:33N 53°46' E 006°04'1615.8
2016-May-03 09:33N 53°51' E 006°29'1615.5
2016-May-03 08:34N 53°55' E 006°55'1515.0
2016-May-03 07:34N 53°58' E 007°20'1514.7
2016-May-03 06:34N 54°02' E 007°44'1414.2
2016-May-03 05:33N 54°01' E 008°08'1212.0
2016-May-03 04:33N 53°59' E 008°28'1313.2
2016-May-03 03:33N 53°51' E 008°46'1414.5
2016-May-03 02:34N 53°53' E 009°10'1414.2
2016-May-03 01:34N 53°43' E 009°28'1413.5
2016-May-03 00:33N 53°34' E 009°44'8 8.3
2016-May-02 23:33N 53°30' E 009°57'1 1.4
2016-May-02 22:32N 53°29' E 009°59'0 0.0
2016-May-02 21:32N 53°29' E 009°59'0 0.0
2016-May-02 20:29N 53°29' E 009°59'0 0.0
2016-May-02 19:32N 53°29' E 009°59'0 0.0
2016-May-02 18:32N 53°29' E 009°59'0 0.0
2016-May-02 17:32N 53°29' E 009°59'0 0.0
2016-May-02 16:32N 53°29' E 009°59'0 0.0
2016-May-02 15:32N 53°29' E 009°59'0 0.0
2016-May-02 14:32N 53°29' E 009°59'0 0.0
2016-May-02 13:32N 53°29' E 009°59'0 0.0
2016-May-02 12:32N 53°29' E 009°59'0 0.0
2016-May-02 11:32N 53°29' E 009°59'0 0.0
2016-May-02 10:32N 53°29' E 009°59'0 0.0
2016-May-02 09:32N 53°29' E 009°59'0 0.0
2016-May-02 08:32N 53°29' E 009°59'0 0.0
2016-May-02 07:32N 53°29' E 009°59'0 0.0
2016-May-02 06:32N 53°29' E 009°59'0 0.0
2016-May-02 05:32N 53°29' E 009°59'0 0.0
2016-May-02 04:32N 53°29' E 009°59'0 0.0
2016-May-02 03:32N 53°29' E 009°59'0 0.0
2016-May-02 02:32N 53°29' E 009°59'0 0.0
2016-May-02 01:32N 53°29' E 009°59'0 0.0
2016-May-02 00:32N 53°29' E 009°59'0 0.0
2016-May-01 23:32N 53°29' E 009°59'0 0.0
2016-May-01 22:32N 53°29' E 009°59'0 0.0
2016-May-01 21:32N 53°29' E 009°59'0 0.0
2016-May-01 20:32N 53°29' E 009°59'0 0.0
2016-May-01 19:32N 53°29' E 009°59'0 0.0
2016-May-01 18:29N 53°29' E 009°59'0 0.0
2016-May-01 17:29N 53°29' E 009°59'0 0.0
2016-May-01 16:32N 53°29' E 009°59'0 0.0
2016-May-01 15:32N 53°29' E 009°59'0 0.0
2016-May-01 14:32N 53°29' E 009°59'0 0.0
2016-May-01 13:32N 53°29' E 009°59'0 0.0
2016-May-01 12:32N 53°29' E 009°59'0 0.0
2016-May-01 11:32N 53°29' E 009°59'0 0.0
2016-May-01 10:32N 53°29' E 009°59'0 0.0
2016-May-01 09:32N 53°29' E 009°59'0 0.0
2016-May-01 08:32N 53°29' E 009°59'0 0.0
2016-May-01 07:29N 53°29' E 009°59'0 0.4
2016-May-01 06:33N 53°30' E 009°59'4 3.6
2016-May-01 05:33N 53°32' E 009°55'1010.1
2016-May-01 04:33N 53°34' E 009°38'1110.9
2016-May-01 03:33N 53°43' E 009°28'1111.2
2016-May-01 02:33N 53°52' E 009°16'9 9.3
2016-May-01 01:34N 53°51' E 009°00'10 9.6
2016-May-01 00:33N 53°52' E 008°44'9 9.0
2016-Apr-30 23:33N 53°58' E 008°33'10 9.9
2016-Apr-30 22:33N 53°60' E 008°16'1211.7
2016-Apr-30 21:33N 53°58' E 007°57'0 0.4
2016-Apr-30 20:33N 53°59' E 007°57'8 7.8
2016-Apr-30 19:33N 53°56' E 007°44'1111.3
2016-Apr-30 18:33N 53°54' E 007°26'1111.3
2016-Apr-30 17:33N 53°51' E 007°07'1211.7
2016-Apr-30 16:33N 53°49' E 006°47'1211.9
2016-Apr-30 15:33N 53°46' E 006°28'1212.3
2016-Apr-30 14:33N 53°42' E 006°08'1312.6
2016-Apr-30 13:33N 53°38' E 005°48'1312.7
2016-Apr-30 12:33N 53°34' E 005°28'1313.0
2016-Apr-30 11:33N 53°30' E 005°07'2711.9
2016-Apr-30 09:18N 53°12' E 004°33'1413.0
2016-Apr-30 08:12N 52°60' E 004°21'913.2
2016-Apr-30 07:33N 52°52' E 004°15'7312.1
2016-Apr-30 01:32N 51°49' E 003°17'1110.9
2016-Apr-30 00:33N 51°39' E 003°11'1413.6
2016-Apr-29 23:33N 51°27' E 002°60'1313.2
2016-Apr-29 22:33N 51°24' E 003°20'1212.4
2016-Apr-29 21:34N 51°26' E 003°40'1111.1
2016-Apr-29 20:33N 51°25' E 003°58'1010.0
2016-Apr-29 19:33N 51°22' E 004°13'7 6.9
2016-Apr-29 18:33N 51°17' E 004°20'0 0.3
2016-Apr-29 17:31N 51°16' E 004°20'2 1.7
2016-Apr-29 16:31N 51°17' E 004°23'0 0.0
2016-Apr-29 15:31N 51°17' E 004°23'0 0.0
2016-Apr-29 14:31N 51°17' E 004°23'0 0.0
2016-Apr-29 13:31N 51°17' E 004°23'0 0.0
2016-Apr-29 12:31N 51°17' E 004°23'0 0.0
2016-Apr-29 11:31N 51°17' E 004°23'0 0.0
2016-Apr-29 10:31N 51°17' E 004°23'0 0.0
2016-Apr-29 09:28N 51°17' E 004°23'0 0.0
2016-Apr-29 08:31N 51°17' E 004°23'0 0.0
2016-Apr-29 07:31N 51°17' E 004°23'0 0.0
2016-Apr-29 06:31N 51°17' E 004°23'0 0.0
2016-Apr-29 05:31N 51°17' E 004°23'0 0.0
2016-Apr-29 04:31N 51°17' E 004°23'0 0.0
2016-Apr-29 03:31N 51°17' E 004°23'0 0.0
2016-Apr-29 02:31N 51°17' E 004°23'0 0.0
2016-Apr-29 01:31N 51°17' E 004°23'0 0.0
2016-Apr-29 00:31N 51°17' E 004°23'0 0.0
2016-Apr-28 23:31N 51°17' E 004°23'0 0.0
2016-Apr-28 22:31N 51°17' E 004°23'1 0.8
2016-Apr-28 21:33N 51°17' E 004°22'1 0.7
2016-Apr-28 20:33N 51°17' E 004°23'0 0.0
2016-Apr-28 19:33N 51°17' E 004°23'0 0.0
2016-Apr-28 18:33N 51°17' E 004°23'0 0.0
2016-Apr-28 17:33N 51°17' E 004°23'0 0.0
2016-Apr-28 16:33N 51°17' E 004°23'0 0.0
2016-Apr-28 15:33N 51°17' E 004°23'0 0.0
2016-Apr-28 14:33N 51°17' E 004°23'0 0.0
2016-Apr-28 13:33N 51°17' E 004°23'0 0.0
2016-Apr-28 12:33N 51°17' E 004°23'0 0.0
2016-Apr-28 11:33N 51°17' E 004°23'0 0.0
2016-Apr-28 10:33N 51°17' E 004°23'0 0.0
2016-Apr-28 09:33N 51°17' E 004°23'0 0.0
2016-Apr-28 08:33N 51°17' E 004°23'0 0.0
2016-Apr-28 07:33N 51°17' E 004°23'0 0.0
2016-Apr-28 06:33N 51°17' E 004°23'0 0.0
2016-Apr-28 05:33N 51°17' E 004°23'0 0.0
2016-Apr-28 04:33N 51°17' E 004°23'0 0.0
2016-Apr-28 03:33N 51°17' E 004°23'0 0.0
2016-Apr-28 02:33N 51°17' E 004°23'0 0.0
2016-Apr-28 01:33N 51°17' E 004°23'0 0.0
2016-Apr-28 00:33N 51°17' E 004°23'0 0.0
2016-Apr-27 23:33N 51°17' E 004°23'0 0.0
2016-Apr-27 22:33N 51°17' E 004°23'0 0.0
2016-Apr-27 21:33N 51°17' E 004°23'0 0.0
2016-Apr-27 20:33N 51°17' E 004°23'0 0.0
2016-Apr-27 19:33N 51°17' E 004°23'0 0.0
2016-Apr-27 18:33N 51°17' E 004°23'0 0.0
2016-Apr-27 17:33N 51°17' E 004°23'0 0.0
2016-Apr-27 16:33N 51°17' E 004°23'0 0.0
2016-Apr-27 15:33N 51°17' E 004°23'0 0.0
2016-Apr-27 14:33N 51°17' E 004°23'0 0.0
2016-Apr-27 13:33N 51°17' E 004°23'0 0.0
2016-Apr-27 12:33N 51°17' E 004°23'0 0.0
2016-Apr-27 11:33N 51°17' E 004°23'0 0.0
2016-Apr-27 10:33N 51°17' E 004°23'0 0.0
2016-Apr-27 09:33N 51°17' E 004°23'0 0.0
2016-Apr-27 08:33N 51°17' E 004°23'0 0.0
2016-Apr-27 07:33N 51°17' E 004°23'0 0.0
2016-Apr-27 06:33N 51°17' E 004°23'0 0.0
2016-Apr-27 05:33N 51°17' E 004°23'0 0.0
2016-Apr-27 04:33N 51°17' E 004°23'0 0.0
2016-Apr-27 03:33N 51°17' E 004°23'0 0.0
2016-Apr-27 02:33N 51°17' E 004°23'0 0.0
2016-Apr-27 01:33N 51°17' E 004°23'0 0.0
2016-Apr-27 00:33N 51°17' E 004°23'0 0.0
2016-Apr-26 23:33N 51°17' E 004°23'0 0.0
2016-Apr-26 22:33N 51°17' E 004°23'0 0.0
2016-Apr-26 21:33N 51°17' E 004°23'0 0.0
2016-Apr-26 20:33N 51°17' E 004°23'0 0.0
2016-Apr-26 19:33N 51°17' E 004°23'0 0.0
2016-Apr-26 18:33N 51°17' E 004°23'0 0.0
2016-Apr-26 17:33N 51°17' E 004°23'0 0.0
2016-Apr-26 16:33N 51°17' E 004°23'0 0.0
2016-Apr-26 15:33N 51°17' E 004°23'0 0.0
2016-Apr-26 14:33N 51°17' E 004°23'0 0.0
2016-Apr-26 13:33N 51°17' E 004°23'0 0.0
2016-Apr-26 12:30N 51°17' E 004°23'0 0.0
2016-Apr-26 11:33N 51°17' E 004°23'0 0.0
2016-Apr-26 10:33N 51°17' E 004°23'0 0.1
2016-Apr-26 09:33N 51°17' E 004°23'0 0.1
2016-Apr-26 08:33N 51°17' E 004°23'0 0.0
2016-Apr-26 07:33N 51°17' E 004°23'0 0.0
2016-Apr-26 06:33N 51°17' E 004°23'0 0.0
2016-Apr-26 05:33N 51°17' E 004°23'0 0.0
2016-Apr-26 04:30N 51°17' E 004°23'0 0.0
2016-Apr-26 03:33N 51°17' E 004°23'0 0.0
2016-Apr-26 02:33N 51°17' E 004°23'0 0.0
2016-Apr-26 01:33N 51°17' E 004°23'0 0.0
2016-Apr-26 00:33N 51°17' E 004°23'0 0.0
2016-Apr-25 23:33N 51°17' E 004°23'0 0.0
2016-Apr-25 22:33N 51°17' E 004°23'0 0.0
2016-Apr-25 21:33N 51°17' E 004°23'0 0.0
2016-Apr-25 20:33N 51°17' E 004°23'0 0.0
2016-Apr-25 19:33N 51°17' E 004°23'0 0.0
2016-Apr-25 18:33N 51°17' E 004°23'0 0.0
2016-Apr-25 17:33N 51°17' E 004°23'0 0.0
2016-Apr-25 16:33N 51°17' E 004°23'0 0.0
2016-Apr-25 15:33N 51°17' E 004°23'0 0.0
2016-Apr-25 14:33N 51°17' E 004°23'0 0.0
2016-Apr-25 13:33N 51°17' E 004°23'0 0.0
2016-Apr-25 12:33N 51°17' E 004°23'0 0.0
2016-Apr-25 11:33N 51°17' E 004°23'0 0.0
2016-Apr-25 10:30N 51°17' E 004°23'0 0.0
2016-Apr-25 09:33N 51°17' E 004°23'  

Dump ship's entire track history